sensor_id;sensor_type;location;lat;lon;timestamp;P1;durP1;ratioP1;P2;durP2;ratioP2
19343;SDS011;9808;52.402;16.678;2023-09-12T00:02:14;23.85;;;11.35;;
19343;SDS011;9808;52.402;16.678;2023-09-12T00:04:41;20.55;;;11.18;;
19343;SDS011;9808;52.402;16.678;2023-09-12T00:07:09;17.88;;;11.20;;
19343;SDS011;9808;52.402;16.678;2023-09-12T00:09:36;19.50;;;12.32;;
19343;SDS011;9808;52.402;16.678;2023-09-12T00:12:03;18.35;;;11.32;;
19343;SDS011;9808;52.402;16.678;2023-09-12T00:14:31;15.88;;;10.75;;
19343;SDS011;9808;52.402;16.678;2023-09-12T00:16:58;18.25;;;11.38;;
19343;SDS011;9808;52.402;16.678;2023-09-12T00:19:25;21.35;;;11.05;;
19343;SDS011;9808;52.402;16.678;2023-09-12T00:21:52;18.90;;;11.55;;
19343;SDS011;9808;52.402;16.678;2023-09-12T00:24:20;18.77;;;11.43;;
19343;SDS011;9808;52.402;16.678;2023-09-12T00:26:47;19.75;;;11.90;;
19343;SDS011;9808;52.402;16.678;2023-09-12T00:29:14;16.75;;;11.85;;
19343;SDS011;9808;52.402;16.678;2023-09-12T00:31:42;23.63;;;12.23;;
19343;SDS011;9808;52.402;16.678;2023-09-12T00:34:09;20.10;;;11.98;;
19343;SDS011;9808;52.402;16.678;2023-09-12T00:36:36;20.33;;;11.07;;
19343;SDS011;9808;52.402;16.678;2023-09-12T00:39:04;19.33;;;11.55;;
19343;SDS011;9808;52.402;16.678;2023-09-12T00:41:31;18.38;;;11.32;;
19343;SDS011;9808;52.402;16.678;2023-09-12T00:43:59;18.58;;;11.60;;
19343;SDS011;9808;52.402;16.678;2023-09-12T00:46:26;17.13;;;11.32;;
19343;SDS011;9808;52.402;16.678;2023-09-12T00:48:54;16.45;;;10.80;;
19343;SDS011;9808;52.402;16.678;2023-09-12T00:51:23;16.42;;;11.27;;
19343;SDS011;9808;52.402;16.678;2023-09-12T00:53:51;18.85;;;11.40;;
19343;SDS011;9808;52.402;16.678;2023-09-12T00:56:20;20.85;;;11.43;;
19343;SDS011;9808;52.402;16.678;2023-09-12T00:58:47;18.42;;;11.35;;
19343;SDS011;9808;52.402;16.678;2023-09-12T01:01:18;19.23;;;11.82;;
19343;SDS011;9808;52.402;16.678;2023-09-12T01:03:45;17.67;;;11.55;;
19343;SDS011;9808;52.402;16.678;2023-09-12T01:06:12;18.55;;;11.50;;
19343;SDS011;9808;52.402;16.678;2023-09-12T01:08:41;20.30;;;11.68;;
19343;SDS011;9808;52.402;16.678;2023-09-12T01:11:09;18.92;;;11.48;;
19343;SDS011;9808;52.402;16.678;2023-09-12T01:13:36;18.42;;;11.82;;
19343;SDS011;9808;52.402;16.678;2023-09-12T01:16:04;19.90;;;11.90;;
19343;SDS011;9808;52.402;16.678;2023-09-12T01:18:31;20.58;;;11.70;;
19343;SDS011;9808;52.402;16.678;2023-09-12T01:29:04;16.48;;;11.20;;
19343;SDS011;9808;52.402;16.678;2023-09-12T01:31:34;21.95;;;12.27;;
19343;SDS011;9808;52.402;16.678;2023-09-12T01:34:08;17.02;;;11.48;;
19343;SDS011;9808;52.402;16.678;2023-09-12T01:36:37;18.60;;;11.80;;
19343;SDS011;9808;52.402;16.678;2023-09-12T01:39:04;17.00;;;12.07;;
19343;SDS011;9808;52.402;16.678;2023-09-12T01:41:33;20.95;;;12.68;;
19343;SDS011;9808;52.402;16.678;2023-09-12T01:44:02;19.77;;;11.90;;
19343;SDS011;9808;52.402;16.678;2023-09-12T01:46:31;20.05;;;11.10;;
19343;SDS011;9808;52.402;16.678;2023-09-12T01:48:59;19.95;;;12.32;;
19343;SDS011;9808;52.402;16.678;2023-09-12T01:51:26;19.25;;;11.38;;
19343;SDS011;9808;52.402;16.678;2023-09-12T01:53:53;16.48;;;11.35;;
19343;SDS011;9808;52.402;16.678;2023-09-12T01:56:21;16.67;;;11.48;;
19343;SDS011;9808;52.402;16.678;2023-09-12T01:58:48;17.00;;;11.85;;
19343;SDS011;9808;52.402;16.678;2023-09-12T02:01:16;20.88;;;11.18;;
19343;SDS011;9808;52.402;16.678;2023-09-12T02:03:43;17.30;;;11.00;;
19343;SDS011;9808;52.402;16.678;2023-09-12T02:06:10;17.67;;;12.07;;
19343;SDS011;9808;52.402;16.678;2023-09-12T02:08:38;17.05;;;11.20;;
19343;SDS011;9808;52.402;16.678;2023-09-12T02:11:06;17.80;;;11.88;;
19343;SDS011;9808;52.402;16.678;2023-09-12T02:13:33;20.08;;;12.27;;
19343;SDS011;9808;52.402;16.678;2023-09-12T02:16:01;17.92;;;11.00;;
19343;SDS011;9808;52.402;16.678;2023-09-12T02:18:30;16.40;;;11.43;;
19343;SDS011;9808;52.402;16.678;2023-09-12T02:21:00;21.63;;;11.43;;
19343;SDS011;9808;52.402;16.678;2023-09-12T02:23:27;17.70;;;11.35;;
19343;SDS011;9808;52.402;16.678;2023-09-12T02:25:55;20.75;;;11.60;;
19343;SDS011;9808;52.402;16.678;2023-09-12T02:28:23;20.50;;;11.30;;
19343;SDS011;9808;52.402;16.678;2023-09-12T02:30:51;18.98;;;12.30;;
19343;SDS011;9808;52.402;16.678;2023-09-12T02:33:18;16.38;;;10.85;;
19343;SDS011;9808;52.402;16.678;2023-09-12T02:35:45;18.85;;;11.05;;
19343;SDS011;9808;52.402;16.678;2023-09-12T02:38:13;17.00;;;11.05;;
19343;SDS011;9808;52.402;16.678;2023-09-12T02:40:40;18.98;;;11.27;;
19343;SDS011;9808;52.402;16.678;2023-09-12T02:43:07;20.63;;;11.20;;
19343;SDS011;9808;52.402;16.678;2023-09-12T02:45:35;18.17;;;10.90;;
19343;SDS011;9808;52.402;16.678;2023-09-12T02:48:02;18.23;;;11.77;;
19343;SDS011;9808;52.402;16.678;2023-09-12T02:50:30;18.40;;;10.95;;
19343;SDS011;9808;52.402;16.678;2023-09-12T02:52:57;18.38;;;11.32;;
19343;SDS011;9808;52.402;16.678;2023-09-12T02:55:24;17.92;;;11.05;;
19343;SDS011;9808;52.402;16.678;2023-09-12T02:57:51;18.52;;;11.85;;
19343;SDS011;9808;52.402;16.678;2023-09-12T03:00:19;18.50;;;10.98;;
19343;SDS011;9808;52.402;16.678;2023-09-12T03:02:46;20.83;;;12.13;;
19343;SDS011;9808;52.402;16.678;2023-09-12T03:05:13;20.85;;;11.68;;
19343;SDS011;9808;52.402;16.678;2023-09-12T03:07:40;23.30;;;12.60;;
19343;SDS011;9808;52.402;16.678;2023-09-12T03:10:08;22.95;;;11.93;;
19343;SDS011;9808;52.402;16.678;2023-09-12T03:12:35;19.77;;;11.40;;
19343;SDS011;9808;52.402;16.678;2023-09-12T03:15:03;23.23;;;11.95;;
19343;SDS011;9808;52.402;16.678;2023-09-12T03:17:34;28.55;;;12.05;;
19343;SDS011;9808;52.402;16.678;2023-09-12T03:20:02;24.27;;;11.88;;
19343;SDS011;9808;52.402;16.678;2023-09-12T03:22:32;20.35;;;12.40;;
19343;SDS011;9808;52.402;16.678;2023-09-12T03:25:04;20.48;;;12.02;;
19343;SDS011;9808;52.402;16.678;2023-09-12T03:27:32;24.15;;;12.23;;
19343;SDS011;9808;52.402;16.678;2023-09-12T03:29:59;19.55;;;11.65;;
19343;SDS011;9808;52.402;16.678;2023-09-12T03:32:26;25.52;;;11.98;;
19343;SDS011;9808;52.402;16.678;2023-09-12T03:34:54;21.90;;;12.88;;
19343;SDS011;9808;52.402;16.678;2023-09-12T03:37:21;22.88;;;12.93;;
19343;SDS011;9808;52.402;16.678;2023-09-12T03:39:48;20.48;;;13.02;;
19343;SDS011;9808;52.402;16.678;2023-09-12T03:42:16;23.33;;;12.65;;
19343;SDS011;9808;52.402;16.678;2023-09-12T03:44:43;20.88;;;12.60;;
19343;SDS011;9808;52.402;16.678;2023-09-12T03:47:10;21.88;;;12.70;;
19343;SDS011;9808;52.402;16.678;2023-09-12T03:49:37;29.75;;;12.60;;
19343;SDS011;9808;52.402;16.678;2023-09-12T03:52:05;27.63;;;13.65;;
19343;SDS011;9808;52.402;16.678;2023-09-12T03:54:32;25.67;;;12.75;;
19343;SDS011;9808;52.402;16.678;2023-09-12T03:56:59;31.98;;;12.88;;
19343;SDS011;9808;52.402;16.678;2023-09-12T03:59:27;29.13;;;13.93;;
19343;SDS011;9808;52.402;16.678;2023-09-12T04:01:54;32.90;;;12.77;;
19343;SDS011;9808;52.402;16.678;2023-09-12T04:04:21;25.13;;;12.73;;
19343;SDS011;9808;52.402;16.678;2023-09-12T04:06:49;25.23;;;13.50;;
19343;SDS011;9808;52.402;16.678;2023-09-12T04:09:16;27.42;;;13.20;;
19343;SDS011;9808;52.402;16.678;2023-09-12T04:11:43;24.90;;;13.25;;
19343;SDS011;9808;52.402;16.678;2023-09-12T04:14:13;19.90;;;12.63;;
19343;SDS011;9808;52.402;16.678;2023-09-12T04:16:41;26.50;;;14.25;;
19343;SDS011;9808;52.402;16.678;2023-09-12T04:19:08;30.98;;;13.70;;
19343;SDS011;9808;52.402;16.678;2023-09-12T04:21:35;25.52;;;12.88;;
19343;SDS011;9808;52.402;16.678;2023-09-12T04:24:03;30.17;;;13.60;;
19343;SDS011;9808;52.402;16.678;2023-09-12T04:26:30;29.48;;;13.93;;
19343;SDS011;9808;52.402;16.678;2023-09-12T04:28:57;31.55;;;13.45;;
19343;SDS011;9808;52.402;16.678;2023-09-12T04:31:25;32.20;;;13.85;;
19343;SDS011;9808;52.402;16.678;2023-09-12T04:33:53;26.83;;;13.52;;
19343;SDS011;9808;52.402;16.678;2023-09-12T04:36:20;28.52;;;13.80;;
19343;SDS011;9808;52.402;16.678;2023-09-12T04:38:47;31.42;;;13.50;;
19343;SDS011;9808;52.402;16.678;2023-09-12T04:41:15;33.40;;;14.27;;
19343;SDS011;9808;52.402;16.678;2023-09-12T04:43:43;32.95;;;14.63;;
19343;SDS011;9808;52.402;16.678;2023-09-12T04:46:11;31.42;;;14.77;;
19343;SDS011;9808;52.402;16.678;2023-09-12T04:48:38;29.10;;;13.55;;
19343;SDS011;9808;52.402;16.678;2023-09-12T04:51:06;45.10;;;16.02;;
19343;SDS011;9808;52.402;16.678;2023-09-12T04:53:34;34.60;;;14.32;;
19343;SDS011;9808;52.402;16.678;2023-09-12T04:56:04;28.63;;;14.13;;
19343;SDS011;9808;52.402;16.678;2023-09-12T04:58:32;34.17;;;14.48;;
19343;SDS011;9808;52.402;16.678;2023-09-12T05:01:00;27.42;;;13.43;;
19343;SDS011;9808;52.402;16.678;2023-09-12T05:03:27;32.72;;;13.40;;
19343;SDS011;9808;52.402;16.678;2023-09-12T05:05:54;26.65;;;13.77;;
19343;SDS011;9808;52.402;16.678;2023-09-12T05:08:21;25.00;;;13.07;;
19343;SDS011;9808;52.402;16.678;2023-09-12T05:10:49;32.72;;;14.32;;
19343;SDS011;9808;52.402;16.678;2023-09-12T05:13:16;26.73;;;14.27;;
19343;SDS011;9808;52.402;16.678;2023-09-12T05:15:44;31.63;;;14.45;;
19343;SDS011;9808;52.402;16.678;2023-09-12T05:18:11;32.10;;;14.57;;
19343;SDS011;9808;52.402;16.678;2023-09-12T05:20:38;26.60;;;15.30;;
19343;SDS011;9808;52.402;16.678;2023-09-12T05:23:06;27.55;;;15.05;;
19343;SDS011;9808;52.402;16.678;2023-09-12T05:25:33;27.70;;;15.05;;
19343;SDS011;9808;52.402;16.678;2023-09-12T05:28:00;29.63;;;15.82;;
19343;SDS011;9808;52.402;16.678;2023-09-12T05:30:27;28.88;;;15.00;;
19343;SDS011;9808;52.402;16.678;2023-09-12T05:32:55;29.23;;;14.82;;
19343;SDS011;9808;52.402;16.678;2023-09-12T05:35:22;35.20;;;16.60;;
19343;SDS011;9808;52.402;16.678;2023-09-12T05:37:50;33.53;;;16.02;;
19343;SDS011;9808;52.402;16.678;2023-09-12T05:40:18;36.67;;;16.48;;
19343;SDS011;9808;52.402;16.678;2023-09-12T05:42:45;50.83;;;16.38;;
19343;SDS011;9808;52.402;16.678;2023-09-12T05:45:12;45.08;;;17.13;;
19343;SDS011;9808;52.402;16.678;2023-09-12T05:47:40;71.82;;;19.95;;
19343;SDS011;9808;52.402;16.678;2023-09-12T05:50:07;55.35;;;18.17;;
19343;SDS011;9808;52.402;16.678;2023-09-12T05:52:34;59.00;;;19.67;;
19343;SDS011;9808;52.402;16.678;2023-09-12T05:55:02;79.45;;;20.27;;
19343;SDS011;9808;52.402;16.678;2023-09-12T05:57:31;54.50;;;20.00;;
19343;SDS011;9808;52.402;16.678;2023-09-12T05:59:59;51.95;;;21.38;;
19343;SDS011;9808;52.402;16.678;2023-09-12T06:02:27;50.13;;;20.88;;
19343;SDS011;9808;52.402;16.678;2023-09-12T06:04:54;42.83;;;21.70;;
19343;SDS011;9808;52.402;16.678;2023-09-12T06:07:22;37.10;;;21.70;;
19343;SDS011;9808;52.402;16.678;2023-09-12T06:09:49;38.78;;;21.58;;
19343;SDS011;9808;52.402;16.678;2023-09-12T06:12:16;36.30;;;22.63;;
19343;SDS011;9808;52.402;16.678;2023-09-12T06:14:44;34.28;;;21.55;;
19343;SDS011;9808;52.402;16.678;2023-09-12T06:17:11;39.53;;;22.48;;
19343;SDS011;9808;52.402;16.678;2023-09-12T06:19:39;34.88;;;23.45;;
19343;SDS011;9808;52.402;16.678;2023-09-12T06:22:06;38.00;;;23.67;;
19343;SDS011;9808;52.402;16.678;2023-09-12T06:24:33;37.28;;;22.75;;
19343;SDS011;9808;52.402;16.678;2023-09-12T06:27:00;38.90;;;24.30;;
19343;SDS011;9808;52.402;16.678;2023-09-12T06:29:28;37.10;;;23.10;;
19343;SDS011;9808;52.402;16.678;2023-09-12T06:31:55;36.65;;;22.15;;
19343;SDS011;9808;52.402;16.678;2023-09-12T06:34:23;31.42;;;21.20;;
19343;SDS011;9808;52.402;16.678;2023-09-12T06:36:50;34.53;;;21.27;;
19343;SDS011;9808;52.402;16.678;2023-09-12T06:39:17;30.48;;;21.25;;
19343;SDS011;9808;52.402;16.678;2023-09-12T06:41:45;31.10;;;21.65;;
19343;SDS011;9808;52.402;16.678;2023-09-12T06:44:12;30.00;;;19.90;;
19343;SDS011;9808;52.402;16.678;2023-09-12T06:46:39;32.03;;;19.92;;
19343;SDS011;9808;52.402;16.678;2023-09-12T06:49:06;36.53;;;20.85;;
19343;SDS011;9808;52.402;16.678;2023-09-12T06:51:34;30.58;;;20.80;;
19343;SDS011;9808;52.402;16.678;2023-09-12T06:54:04;29.92;;;19.10;;
19343;SDS011;9808;52.402;16.678;2023-09-12T06:56:31;33.88;;;20.08;;
19343;SDS011;9808;52.402;16.678;2023-09-12T06:58:58;39.88;;;20.38;;
19343;SDS011;9808;52.402;16.678;2023-09-12T07:01:26;33.30;;;19.45;;
19343;SDS011;9808;52.402;16.678;2023-09-12T07:03:53;28.58;;;19.27;;
19343;SDS011;9808;52.402;16.678;2023-09-12T07:06:22;29.58;;;19.52;;
19343;SDS011;9808;52.402;16.678;2023-09-12T07:08:50;27.75;;;18.02;;
19343;SDS011;9808;52.402;16.678;2023-09-12T07:11:20;28.35;;;18.55;;
19343;SDS011;9808;52.402;16.678;2023-09-12T07:13:47;32.33;;;18.95;;
19343;SDS011;9808;52.402;16.678;2023-09-12T07:16:16;26.50;;;17.58;;
19343;SDS011;9808;52.402;16.678;2023-09-12T07:18:44;28.30;;;17.85;;
19343;SDS011;9808;52.402;16.678;2023-09-12T07:21:12;28.00;;;17.13;;
19343;SDS011;9808;52.402;16.678;2023-09-12T07:23:39;27.05;;;16.60;;
19343;SDS011;9808;52.402;16.678;2023-09-12T07:26:11;31.60;;;19.10;;
19343;SDS011;9808;52.402;16.678;2023-09-12T07:28:39;20.85;;;14.98;;
19343;SDS011;9808;52.402;16.678;2023-09-12T07:31:06;24.65;;;15.13;;
19343;SDS011;9808;52.402;16.678;2023-09-12T07:33:33;24.20;;;15.13;;
19343;SDS011;9808;52.402;16.678;2023-09-12T07:36:01;23.35;;;14.73;;
19343;SDS011;9808;52.402;16.678;2023-09-12T07:38:29;22.15;;;15.02;;
19343;SDS011;9808;52.402;16.678;2023-09-12T07:41:01;21.90;;;14.98;;
19343;SDS011;9808;52.402;16.678;2023-09-12T07:43:29;22.50;;;13.18;;
19343;SDS011;9808;52.402;16.678;2023-09-12T07:45:57;35.38;;;14.95;;
19343;SDS011;9808;52.402;16.678;2023-09-12T07:48:24;20.58;;;13.75;;
19343;SDS011;9808;52.402;16.678;2023-09-12T07:50:52;26.13;;;14.20;;
19343;SDS011;9808;52.402;16.678;2023-09-12T07:53:20;20.27;;;13.27;;
19343;SDS011;9808;52.402;16.678;2023-09-12T07:55:48;22.67;;;13.63;;
19343;SDS011;9808;52.402;16.678;2023-09-12T07:58:17;27.77;;;12.75;;
19343;SDS011;9808;52.402;16.678;2023-09-12T08:00:45;19.25;;;12.30;;
19343;SDS011;9808;52.402;16.678;2023-09-12T08:03:13;21.98;;;12.23;;
19343;SDS011;9808;52.402;16.678;2023-09-12T08:05:42;24.15;;;12.95;;
19343;SDS011;9808;52.402;16.678;2023-09-12T08:08:09;25.40;;;13.02;;
19343;SDS011;9808;52.402;16.678;2023-09-12T08:10:36;23.90;;;13.00;;
19343;SDS011;9808;52.402;16.678;2023-09-12T08:13:04;20.00;;;13.32;;
19343;SDS011;9808;52.402;16.678;2023-09-12T08:15:31;30.48;;;13.02;;
19343;SDS011;9808;52.402;16.678;2023-09-12T08:17:59;20.63;;;12.88;;
19343;SDS011;9808;52.402;16.678;2023-09-12T08:20:26;24.67;;;13.20;;
19343;SDS011;9808;52.402;16.678;2023-09-12T08:22:53;24.27;;;12.88;;
19343;SDS011;9808;52.402;16.678;2023-09-12T08:25:20;23.80;;;12.05;;
19343;SDS011;9808;52.402;16.678;2023-09-12T08:27:48;23.00;;;12.07;;
19343;SDS011;9808;52.402;16.678;2023-09-12T08:30:15;23.27;;;11.45;;
19343;SDS011;9808;52.402;16.678;2023-09-12T08:32:43;21.55;;;11.20;;
19343;SDS011;9808;52.402;16.678;2023-09-12T08:35:11;21.60;;;11.85;;
19343;SDS011;9808;52.402;16.678;2023-09-12T08:37:39;18.90;;;11.88;;
19343;SDS011;9808;52.402;16.678;2023-09-12T08:40:07;17.33;;;11.70;;
19343;SDS011;9808;52.402;16.678;2023-09-12T08:42:42;17.35;;;11.85;;
19343;SDS011;9808;52.402;16.678;2023-09-12T08:45:16;17.25;;;11.13;;
19343;SDS011;9808;52.402;16.678;2023-09-12T08:47:45;17.75;;;11.52;;
19343;SDS011;9808;52.402;16.678;2023-09-12T08:50:14;18.65;;;12.10;;
19343;SDS011;9808;52.402;16.678;2023-09-12T08:52:43;23.42;;;12.90;;
19343;SDS011;9808;52.402;16.678;2023-09-12T08:55:29;20.10;;;11.10;;
19343;SDS011;9808;52.402;16.678;2023-09-12T08:57:57;23.52;;;11.77;;
19343;SDS011;9808;52.402;16.678;2023-09-12T09:00:24;24.45;;;11.70;;
19343;SDS011;9808;52.402;16.678;2023-09-12T09:02:56;20.25;;;12.70;;
19343;SDS011;9808;52.402;16.678;2023-09-12T09:05:23;19.70;;;11.13;;
19343;SDS011;9808;52.402;16.678;2023-09-12T09:07:51;18.08;;;11.52;;
19343;SDS011;9808;52.402;16.678;2023-09-12T09:10:21;21.50;;;11.60;;
19343;SDS011;9808;52.402;16.678;2023-09-12T09:13:08;17.45;;;11.30;;
19343;SDS011;9808;52.402;16.678;2023-09-12T09:15:37;24.40;;;10.82;;
19343;SDS011;9808;52.402;16.678;2023-09-12T09:18:08;15.25;;;9.90;;
19343;SDS011;9808;52.402;16.678;2023-09-12T09:20:39;22.88;;;10.95;;
19343;SDS011;9808;52.402;16.678;2023-09-12T09:23:08;28.33;;;11.20;;
19343;SDS011;9808;52.402;16.678;2023-09-12T09:25:38;17.92;;;10.50;;
19343;SDS011;9808;52.402;16.678;2023-09-12T09:28:19;26.85;;;10.80;;
19343;SDS011;9808;52.402;16.678;2023-09-12T09:30:47;22.45;;;11.10;;
19343;SDS011;9808;52.402;16.678;2023-09-12T09:33:17;17.52;;;11.20;;
19343;SDS011;9808;52.402;16.678;2023-09-12T09:35:48;19.55;;;11.25;;
19343;SDS011;9808;52.402;16.678;2023-09-12T09:38:16;16.85;;;9.57;;
19343;SDS011;9808;52.402;16.678;2023-09-12T09:40:45;18.73;;;10.20;;
19343;SDS011;9808;52.402;16.678;2023-09-12T09:43:13;20.60;;;10.60;;
19343;SDS011;9808;52.402;16.678;2023-09-12T09:45:46;13.75;;;9.65;;
19343;SDS011;9808;52.402;16.678;2023-09-12T09:48:20;17.38;;;10.35;;
19343;SDS011;9808;52.402;16.678;2023-09-12T09:50:49;17.40;;;10.52;;
19343;SDS011;9808;52.402;16.678;2023-09-12T09:53:21;16.88;;;9.93;;
19343;SDS011;9808;52.402;16.678;2023-09-12T09:55:53;31.50;;;10.70;;
19343;SDS011;9808;52.402;16.678;2023-09-12T09:58:33;17.40;;;8.82;;
19343;SDS011;9808;52.402;16.678;2023-09-12T10:01:01;13.52;;;9.15;;
19343;SDS011;9808;52.402;16.678;2023-09-12T10:03:33;16.23;;;9.88;;
19343;SDS011;9808;52.402;16.678;2023-09-12T10:06:04;16.50;;;9.00;;
19343;SDS011;9808;52.402;16.678;2023-09-12T10:08:32;17.17;;;9.32;;
19343;SDS011;9808;52.402;16.678;2023-09-12T10:11:04;13.57;;;9.57;;
19343;SDS011;9808;52.402;16.678;2023-09-12T10:13:32;32.28;;;23.27;;
19343;SDS011;9808;52.402;16.678;2023-09-12T10:16:00;22.35;;;13.30;;
19343;SDS011;9808;52.402;16.678;2023-09-12T10:18:35;14.02;;;9.48;;
19343;SDS011;9808;52.402;16.678;2023-09-12T10:21:13;25.10;;;11.18;;
19343;SDS011;9808;52.402;16.678;2023-09-12T10:23:44;16.48;;;10.82;;
19343;SDS011;9808;52.402;16.678;2023-09-12T10:26:15;16.88;;;9.38;;
19343;SDS011;9808;52.402;16.678;2023-09-12T10:28:43;14.18;;;9.45;;
19343;SDS011;9808;52.402;16.678;2023-09-12T10:31:12;13.93;;;9.95;;
19343;SDS011;9808;52.402;16.678;2023-09-12T10:33:42;15.70;;;9.60;;
19343;SDS011;9808;52.402;16.678;2023-09-12T10:36:11;17.55;;;7.88;;
19343;SDS011;9808;52.402;16.678;2023-09-12T10:38:42;16.73;;;7.22;;
19343;SDS011;9808;52.402;16.678;2023-09-12T10:41:11;11.38;;;7.88;;
19343;SDS011;9808;52.402;16.678;2023-09-12T10:43:44;15.30;;;8.25;;
19343;SDS011;9808;52.402;16.678;2023-09-12T10:46:20;12.30;;;9.02;;
19343;SDS011;9808;52.402;16.678;2023-09-12T10:48:49;13.10;;;7.97;;
19343;SDS011;9808;52.402;16.678;2023-09-12T10:51:17;12.07;;;9.02;;
19343;SDS011;9808;52.402;16.678;2023-09-12T10:53:49;14.68;;;8.85;;
19343;SDS011;9808;52.402;16.678;2023-09-12T10:56:17;13.82;;;8.23;;
19343;SDS011;9808;52.402;16.678;2023-09-12T10:59:19;14.07;;;8.63;;
19343;SDS011;9808;52.402;16.678;2023-09-12T11:01:39;15.63;;;9.23;;
19343;SDS011;9808;52.402;16.678;2023-09-12T11:06:50;13.65;;;8.30;;
19343;SDS011;9808;52.402;16.678;2023-09-12T11:09:18;16.13;;;7.25;;
19343;SDS011;9808;52.402;16.678;2023-09-12T11:11:48;12.73;;;7.38;;
19343;SDS011;9808;52.402;16.678;2023-09-12T11:14:16;10.48;;;6.78;;
19343;SDS011;9808;52.402;16.678;2023-09-12T11:16:43;13.60;;;7.15;;
19343;SDS011;9808;52.402;16.678;2023-09-12T11:19:42;11.98;;;6.47;;
19343;SDS011;9808;52.402;16.678;2023-09-12T11:22:29;13.93;;;6.30;;
19343;SDS011;9808;52.402;16.678;2023-09-12T11:25:01;14.60;;;7.10;;
19343;SDS011;9808;52.402;16.678;2023-09-12T11:27:32;9.80;;;7.15;;
19343;SDS011;9808;52.402;16.678;2023-09-12T11:30:10;10.25;;;6.90;;
19343;SDS011;9808;52.402;16.678;2023-09-12T11:32:38;13.07;;;7.53;;
19343;SDS011;9808;52.402;16.678;2023-09-12T11:35:06;14.20;;;8.07;;
19343;SDS011;9808;52.402;16.678;2023-09-12T11:37:33;14.25;;;7.53;;
19343;SDS011;9808;52.402;16.678;2023-09-12T11:42:40;11.25;;;7.57;;
19343;SDS011;9808;52.402;16.678;2023-09-12T11:45:19;13.00;;;7.28;;
19343;SDS011;9808;52.402;16.678;2023-09-12T11:47:47;19.60;;;7.80;;
19343;SDS011;9808;52.402;16.678;2023-09-12T11:50:34;13.10;;;7.50;;
19343;SDS011;9808;52.402;16.678;2023-09-12T11:53:04;16.10;;;7.78;;
19343;SDS011;9808;52.402;16.678;2023-09-12T11:55:35;15.07;;;7.65;;
19343;SDS011;9808;52.402;16.678;2023-09-12T11:58:04;10.73;;;7.20;;
19343;SDS011;9808;52.402;16.678;2023-09-12T12:00:32;16.45;;;7.65;;
19343;SDS011;9808;52.402;16.678;2023-09-12T12:02:59;11.00;;;7.30;;
19343;SDS011;9808;52.402;16.678;2023-09-12T12:05:27;17.65;;;8.40;;
19343;SDS011;9808;52.402;16.678;2023-09-12T12:07:54;13.30;;;8.13;;
19343;SDS011;9808;52.402;16.678;2023-09-12T12:10:41;12.63;;;8.10;;
19343;SDS011;9808;52.402;16.678;2023-09-12T12:13:15;12.55;;;7.60;;
19343;SDS011;9808;52.402;16.678;2023-09-12T12:15:43;11.90;;;7.20;;
19343;SDS011;9808;52.402;16.678;2023-09-12T12:18:10;12.05;;;7.68;;
19343;SDS011;9808;52.402;16.678;2023-09-12T12:20:38;12.40;;;8.13;;
19343;SDS011;9808;52.402;16.678;2023-09-12T12:23:05;11.75;;;7.43;;
19343;SDS011;9808;52.402;16.678;2023-09-12T12:25:32;10.02;;;7.30;;
19343;SDS011;9808;52.402;16.678;2023-09-12T12:28:00;11.85;;;7.38;;
19343;SDS011;9808;52.402;16.678;2023-09-12T12:30:32;14.57;;;8.00;;
19343;SDS011;9808;52.402;16.678;2023-09-12T12:33:06;9.18;;;6.80;;
19343;SDS011;9808;52.402;16.678;2023-09-12T12:36:01;13.93;;;7.65;;
19343;SDS011;9808;52.402;16.678;2023-09-12T12:38:36;12.65;;;7.28;;
19343;SDS011;9808;52.402;16.678;2023-09-12T12:41:13;19.35;;;7.32;;
19343;SDS011;9808;52.402;16.678;2023-09-12T12:43:40;10.20;;;6.75;;
19343;SDS011;9808;52.402;16.678;2023-09-12T12:46:11;17.70;;;8.05;;
19343;SDS011;9808;52.402;16.678;2023-09-12T12:48:41;12.45;;;7.25;;
19343;SDS011;9808;52.402;16.678;2023-09-12T12:51:18;11.88;;;7.57;;
19343;SDS011;9808;52.402;16.678;2023-09-12T12:53:47;16.75;;;8.35;;
19343;SDS011;9808;52.402;16.678;2023-09-12T12:56:20;12.63;;;7.53;;
19343;SDS011;9808;52.402;16.678;2023-09-12T12:58:52;16.27;;;7.53;;
19343;SDS011;9808;52.402;16.678;2023-09-12T13:01:20;13.25;;;7.22;;
19343;SDS011;9808;52.402;16.678;2023-09-12T13:03:47;13.68;;;8.18;;
19343;SDS011;9808;52.402;16.678;2023-09-12T13:06:18;12.55;;;8.05;;
19343;SDS011;9808;52.402;16.678;2023-09-12T13:08:46;18.95;;;7.80;;
19343;SDS011;9808;52.402;16.678;2023-09-12T13:11:14;13.35;;;7.13;;
19343;SDS011;9808;52.402;16.678;2023-09-12T13:13:43;12.93;;;7.90;;
19343;SDS011;9808;52.402;16.678;2023-09-12T13:16:12;15.52;;;8.02;;
19343;SDS011;9808;52.402;16.678;2023-09-12T13:18:39;12.85;;;8.15;;
19343;SDS011;9808;52.402;16.678;2023-09-12T13:21:07;11.75;;;7.63;;
19343;SDS011;9808;52.402;16.678;2023-09-12T13:23:35;12.02;;;7.82;;
19343;SDS011;9808;52.402;16.678;2023-09-12T13:26:03;15.95;;;8.20;;
19343;SDS011;9808;52.402;16.678;2023-09-12T13:28:30;18.13;;;8.50;;
19343;SDS011;9808;52.402;16.678;2023-09-12T13:30:58;11.80;;;8.48;;
19343;SDS011;9808;52.402;16.678;2023-09-12T13:33:25;12.63;;;8.07;;
19343;SDS011;9808;52.402;16.678;2023-09-12T13:35:53;12.27;;;8.05;;
19343;SDS011;9808;52.402;16.678;2023-09-12T13:38:20;16.48;;;8.30;;
19343;SDS011;9808;52.402;16.678;2023-09-12T13:40:49;14.68;;;7.72;;
19343;SDS011;9808;52.402;16.678;2023-09-12T13:43:16;11.70;;;8.02;;
19343;SDS011;9808;52.402;16.678;2023-09-12T13:45:44;14.05;;;8.00;;
19343;SDS011;9808;52.402;16.678;2023-09-12T13:48:12;18.10;;;8.25;;
19343;SDS011;9808;52.402;16.678;2023-09-12T13:50:40;14.98;;;8.27;;
19343;SDS011;9808;52.402;16.678;2023-09-12T13:53:09;12.95;;;8.10;;
19343;SDS011;9808;52.402;16.678;2023-09-12T13:55:36;13.30;;;8.23;;
19343;SDS011;9808;52.402;16.678;2023-09-12T13:58:04;12.82;;;8.07;;
19343;SDS011;9808;52.402;16.678;2023-09-12T14:00:33;15.43;;;8.00;;
19343;SDS011;9808;52.402;16.678;2023-09-12T14:03:04;14.55;;;8.35;;
19343;SDS011;9808;52.402;16.678;2023-09-12T14:05:32;14.50;;;8.38;;
19343;SDS011;9808;52.402;16.678;2023-09-12T14:08:00;13.27;;;7.78;;
19343;SDS011;9808;52.402;16.678;2023-09-12T14:10:27;14.20;;;8.00;;
19343;SDS011;9808;52.402;16.678;2023-09-12T14:13:02;14.20;;;8.75;;
19343;SDS011;9808;52.402;16.678;2023-09-12T14:15:46;15.82;;;8.25;;
19343;SDS011;9808;52.402;16.678;2023-09-12T14:18:16;13.10;;;8.90;;
19343;SDS011;9808;52.402;16.678;2023-09-12T14:20:45;20.60;;;8.15;;
19343;SDS011;9808;52.402;16.678;2023-09-12T14:23:13;13.85;;;8.30;;
19343;SDS011;9808;52.402;16.678;2023-09-12T14:25:41;12.68;;;8.32;;
19343;SDS011;9808;52.402;16.678;2023-09-12T14:28:09;13.70;;;8.52;;
19343;SDS011;9808;52.402;16.678;2023-09-12T14:30:37;13.75;;;9.07;;
19343;SDS011;9808;52.402;16.678;2023-09-12T14:33:10;15.77;;;8.98;;
19343;SDS011;9808;52.402;16.678;2023-09-12T14:35:42;13.55;;;9.27;;
19343;SDS011;9808;52.402;16.678;2023-09-12T14:38:10;15.13;;;8.90;;
19343;SDS011;9808;52.402;16.678;2023-09-12T14:40:37;19.60;;;8.88;;
19343;SDS011;9808;52.402;16.678;2023-09-12T14:43:09;13.00;;;8.68;;
19343;SDS011;9808;52.402;16.678;2023-09-12T14:45:36;13.70;;;8.50;;
19343;SDS011;9808;52.402;16.678;2023-09-12T14:48:05;14.05;;;8.30;;
19343;SDS011;9808;52.402;16.678;2023-09-12T14:50:33;12.10;;;9.15;;